sensor_id;sensor_type;location;lat;lon;timestamp;temperature;humidity
69776;DHT22;57049;51.450;-2.516;2023-01-08T00:02:00;7.91;93.32
69776;DHT22;57049;51.450;-2.516;2023-01-08T00:04:25;7.81;93.57
69776;DHT22;57049;51.450;-2.516;2023-01-08T00:06:51;7.79;93.73
69776;DHT22;57049;51.450;-2.516;2023-01-08T00:09:16;7.88;93.60
69776;DHT22;57049;51.450;-2.516;2023-01-08T00:11:42;7.91;93.45
69776;DHT22;57049;51.450;-2.516;2023-01-08T00:14:09;7.86;93.45
69776;DHT22;57049;51.450;-2.516;2023-01-08T00:16:34;7.89;93.48
69776;DHT22;57049;51.450;-2.516;2023-01-08T00:19:00;7.81;93.62
69776;DHT22;57049;51.450;-2.516;2023-01-08T00:21:25;7.78;94.00
69776;DHT22;57049;51.450;-2.516;2023-01-08T00:23:51;7.74;94.25
69776;DHT22;57049;51.450;-2.516;2023-01-08T00:26:16;7.77;94.18
69776;DHT22;57049;51.450;-2.516;2023-01-08T00:28:42;7.85;94.12
69776;DHT22;57049;51.450;-2.516;2023-01-08T00:31:10;7.95;93.66
69776;DHT22;57049;51.450;-2.516;2023-01-08T00:33:36;7.91;93.57
69776;DHT22;57049;51.450;-2.516;2023-01-08T00:36:14;7.92;93.53
69776;DHT22;57049;51.450;-2.516;2023-01-08T00:38:41;7.91;93.47
69776;DHT22;57049;51.450;-2.516;2023-01-08T00:41:07;7.91;93.56
69776;DHT22;57049;51.450;-2.516;2023-01-08T00:43:33;7.82;93.78
69776;DHT22;57049;51.450;-2.516;2023-01-08T00:45:58;7.79;93.85
69776;DHT22;57049;51.450;-2.516;2023-01-08T00:48:24;7.78;94.01
69776;DHT22;57049;51.450;-2.516;2023-01-08T00:50:50;7.73;94.16
69776;DHT22;57049;51.450;-2.516;2023-01-08T00:53:18;7.70;94.16
69776;DHT22;57049;51.450;-2.516;2023-01-08T00:55:43;7.70;94.17
69776;DHT22;57049;51.450;-2.516;2023-01-08T00:58:10;7.68;94.22
69776;DHT22;57049;51.450;-2.516;2023-01-08T01:00:35;7.70;94.17
69776;DHT22;57049;51.450;-2.516;2023-01-08T01:03:01;7.65;94.23
69776;DHT22;57049;51.450;-2.516;2023-01-08T01:05:26;7.65;94.15
69776;DHT22;57049;51.450;-2.516;2023-01-08T01:07:52;7.70;93.78
69776;DHT22;57049;51.450;-2.516;2023-01-08T01:10:21;7.65;93.76
69776;DHT22;57049;51.450;-2.516;2023-01-08T01:12:46;7.68;93.52
69776;DHT22;57049;51.450;-2.516;2023-01-08T01:15:14;7.71;93.04
69776;DHT22;57049;51.450;-2.516;2023-01-08T01:17:42;7.70;92.76
69776;DHT22;57049;51.450;-2.516;2023-01-08T01:20:10;7.63;92.80
69776;DHT22;57049;51.450;-2.516;2023-01-08T01:22:37;7.75;92.16
69776;DHT22;57049;51.450;-2.516;2023-01-08T01:25:03;7.73;92.17
69776;DHT22;57049;51.450;-2.516;2023-01-08T01:27:29;7.75;91.96
69776;DHT22;57049;51.450;-2.516;2023-01-08T01:29:55;7.71;92.14
69776;DHT22;57049;51.450;-2.516;2023-01-08T01:32:20;7.78;91.72
69776;DHT22;57049;51.450;-2.516;2023-01-08T01:34:46;7.74;92.03
69776;DHT22;57049;51.450;-2.516;2023-01-08T01:37:12;7.77;91.89
69776;DHT22;57049;51.450;-2.516;2023-01-08T01:39:38;7.77;91.85
69776;DHT22;57049;51.450;-2.516;2023-01-08T01:42:04;7.68;91.96
69776;DHT22;57049;51.450;-2.516;2023-01-08T01:47:20;7.67;92.58
69776;DHT22;57049;51.450;-2.516;2023-01-08T01:49:59;7.71;92.55
69776;DHT22;57049;51.450;-2.516;2023-01-08T01:52:28;7.71;92.42
69776;DHT22;57049;51.450;-2.516;2023-01-08T01:54:55;7.63;92.74
69776;DHT22;57049;51.450;-2.516;2023-01-08T01:57:22;7.58;92.91
69776;DHT22;57049;51.450;-2.516;2023-01-08T01:59:49;7.61;92.99
69776;DHT22;57049;51.450;-2.516;2023-01-08T02:02:15;7.67;92.98
69776;DHT22;57049;51.450;-2.516;2023-01-08T02:04:41;7.58;93.24
69776;DHT22;57049;51.450;-2.516;2023-01-08T02:07:25;7.51;93.52
69776;DHT22;57049;51.450;-2.516;2023-01-08T02:12:28;7.61;93.02
69776;DHT22;57049;51.450;-2.516;2023-01-08T02:20:54;7.44;93.46
69776;DHT22;57049;51.450;-2.516;2023-01-08T02:23:46;7.38;93.40
69776;DHT22;57049;51.450;-2.516;2023-01-08T02:28:48;7.37;93.09
69776;DHT22;57049;51.450;-2.516;2023-01-08T02:31:17;7.35;92.91
69776;DHT22;57049;51.450;-2.516;2023-01-08T02:33:44;7.38;92.56
69776;DHT22;57049;51.450;-2.516;2023-01-08T02:39:23;7.41;92.18
69776;DHT22;57049;51.450;-2.516;2023-01-08T02:49:59;7.22;92.13
69776;DHT22;57049;51.450;-2.516;2023-01-08T02:52:28;7.23;91.69
69776;DHT22;57049;51.450;-2.516;2023-01-08T02:54:57;7.20;91.82
69776;DHT22;57049;51.450;-2.516;2023-01-08T02:57:23;7.10;91.91
69776;DHT22;57049;51.450;-2.516;2023-01-08T02:59:50;7.06;91.89
69776;DHT22;57049;51.450;-2.516;2023-01-08T03:02:16;7.09;91.50
69776;DHT22;57049;51.450;-2.516;2023-01-08T03:04:53;7.07;91.47
69776;DHT22;57049;51.450;-2.516;2023-01-08T03:07:21;7.13;90.97
69776;DHT22;57049;51.450;-2.516;2023-01-08T03:09:47;7.19;90.67
69776;DHT22;57049;51.450;-2.516;2023-01-08T03:12:42;7.14;90.84
69776;DHT22;57049;51.450;-2.516;2023-01-08T03:15:14;7.17;90.73
69776;DHT22;57049;51.450;-2.516;2023-01-08T03:17:45;7.16;90.73
69776;DHT22;57049;51.450;-2.516;2023-01-08T03:20:16;7.12;91.00
69776;DHT22;57049;51.450;-2.516;2023-01-08T03:22:47;7.20;90.85
69776;DHT22;57049;51.450;-2.516;2023-01-08T03:25:14;7.14;90.96
69776;DHT22;57049;51.450;-2.516;2023-01-08T03:27:47;7.17;91.16
69776;DHT22;57049;51.450;-2.516;2023-01-08T03:30:15;7.13;91.32
69776;DHT22;57049;51.450;-2.516;2023-01-08T03:32:43;7.10;91.43
69776;DHT22;57049;51.450;-2.516;2023-01-08T03:35:12;7.02;91.85
69776;DHT22;57049;51.450;-2.516;2023-01-08T03:37:41;6.92;91.95
69776;DHT22;57049;51.450;-2.516;2023-01-08T03:42:35;6.86;92.32
69776;DHT22;57049;51.450;-2.516;2023-01-08T03:45:01;6.83;92.29
69776;DHT22;57049;51.450;-2.516;2023-01-08T03:47:31;6.86;92.39
69776;DHT22;57049;51.450;-2.516;2023-01-08T03:50:00;6.86;92.29
69776;DHT22;57049;51.450;-2.516;2023-01-08T03:52:28;6.80;92.37
69776;DHT22;57049;51.450;-2.516;2023-01-08T03:54:54;6.75;92.65
69776;DHT22;57049;51.450;-2.516;2023-01-08T03:57:20;6.69;92.79
69776;DHT22;57049;51.450;-2.516;2023-01-08T03:59:46;6.72;93.00
69776;DHT22;57049;51.450;-2.516;2023-01-08T04:02:11;6.85;92.64
69776;DHT22;57049;51.450;-2.516;2023-01-08T04:04:37;6.88;92.92
69776;DHT22;57049;51.450;-2.516;2023-01-08T04:07:03;6.88;92.92
69776;DHT22;57049;51.450;-2.516;2023-01-08T04:09:28;6.95;92.88
69776;DHT22;57049;51.450;-2.516;2023-01-08T04:11:54;6.97;92.64
69776;DHT22;57049;51.450;-2.516;2023-01-08T04:14:19;7.04;92.15
69776;DHT22;57049;51.450;-2.516;2023-01-08T04:16:45;7.03;92.54
69776;DHT22;57049;51.450;-2.516;2023-01-08T04:19:11;7.03;92.24
69776;DHT22;57049;51.450;-2.516;2023-01-08T04:21:37;7.03;92.23
69776;DHT22;57049;51.450;-2.516;2023-01-08T04:24:03;7.04;92.20
69776;DHT22;57049;51.450;-2.516;2023-01-08T04:26:28;7.14;91.76
69776;DHT22;57049;51.450;-2.516;2023-01-08T04:28:54;7.13;91.72
69776;DHT22;57049;51.450;-2.516;2023-01-08T04:31:19;7.07;91.92
69776;DHT22;57049;51.450;-2.516;2023-01-08T04:33:45;7.10;91.81
69776;DHT22;57049;51.450;-2.516;2023-01-08T04:36:10;7.12;92.00
69776;DHT22;57049;51.450;-2.516;2023-01-08T04:38:36;7.13;91.92
69776;DHT22;57049;51.450;-2.516;2023-01-08T04:41:02;7.22;91.59
69776;DHT22;57049;51.450;-2.516;2023-01-08T04:43:28;7.19;91.52
69776;DHT22;57049;51.450;-2.516;2023-01-08T04:46:01;7.22;91.40
69776;DHT22;57049;51.450;-2.516;2023-01-08T04:48:29;7.10;91.94
69776;DHT22;57049;51.450;-2.516;2023-01-08T04:50:57;7.10;92.15
69776;DHT22;57049;51.450;-2.516;2023-01-08T04:53:23;7.13;91.99
69776;DHT22;57049;51.450;-2.516;2023-01-08T04:55:49;7.14;92.30
69776;DHT22;57049;51.450;-2.516;2023-01-08T04:58:14;7.04;92.42
69776;DHT22;57049;51.450;-2.516;2023-01-08T05:00:40;6.99;92.64
69776;DHT22;57049;51.450;-2.516;2023-01-08T05:03:06;6.92;93.03
69776;DHT22;57049;51.450;-2.516;2023-01-08T05:05:32;6.88;93.05
69776;DHT22;57049;51.450;-2.516;2023-01-08T05:07:58;6.83;93.17
69776;DHT22;57049;51.450;-2.516;2023-01-08T05:10:23;6.72;93.51
69776;DHT22;57049;51.450;-2.516;2023-01-08T05:12:49;6.67;93.55
69776;DHT22;57049;51.450;-2.516;2023-01-08T05:15:14;6.64;93.49
69776;DHT22;57049;51.450;-2.516;2023-01-08T05:17:40;6.58;93.48
69776;DHT22;57049;51.450;-2.516;2023-01-08T05:20:06;6.48;93.74
69776;DHT22;57049;51.450;-2.516;2023-01-08T05:22:32;6.41;93.79
69776;DHT22;57049;51.450;-2.516;2023-01-08T05:24:58;6.37;94.02
69776;DHT22;57049;51.450;-2.516;2023-01-08T05:27:23;6.34;94.09
69776;DHT22;57049;51.450;-2.516;2023-01-08T05:29:49;6.29;94.36
69776;DHT22;57049;51.450;-2.516;2023-01-08T05:32:17;6.24;94.46
69776;DHT22;57049;51.450;-2.516;2023-01-08T05:34:43;6.18;94.60
69776;DHT22;57049;51.450;-2.516;2023-01-08T05:37:09;6.14;94.65
69776;DHT22;57049;51.450;-2.516;2023-01-08T05:39:35;6.06;94.81
69776;DHT22;57049;51.450;-2.516;2023-01-08T05:42:01;6.17;94.74
69776;DHT22;57049;51.450;-2.516;2023-01-08T05:44:26;6.21;94.87
69776;DHT22;57049;51.450;-2.516;2023-01-08T05:46:52;6.21;94.88
69776;DHT22;57049;51.450;-2.516;2023-01-08T05:49:18;6.22;95.00
69776;DHT22;57049;51.450;-2.516;2023-01-08T05:51:46;6.20;95.11
69776;DHT22;57049;51.450;-2.516;2023-01-08T05:54:11;6.20;95.06
69776;DHT22;57049;51.450;-2.516;2023-01-08T05:56:37;6.18;94.98
69776;DHT22;57049;51.450;-2.516;2023-01-08T05:59:02;6.22;94.72
69776;DHT22;57049;51.450;-2.516;2023-01-08T06:01:28;6.20;94.43
69776;DHT22;57049;51.450;-2.516;2023-01-08T06:03:54;6.16;94.54
69776;DHT22;57049;51.450;-2.516;2023-01-08T06:06:20;6.03;94.54
69776;DHT22;57049;51.450;-2.516;2023-01-08T06:08:46;6.04;94.82
69776;DHT22;57049;51.450;-2.516;2023-01-08T06:11:11;5.93;94.99
69776;DHT22;57049;51.450;-2.516;2023-01-08T06:13:40;5.96;94.89
69776;DHT22;57049;51.450;-2.516;2023-01-08T06:16:06;5.94;94.79
69776;DHT22;57049;51.450;-2.516;2023-01-08T06:18:32;5.97;94.84
69776;DHT22;57049;51.450;-2.516;2023-01-08T06:20:57;5.87;94.86
69776;DHT22;57049;51.450;-2.516;2023-01-08T06:23:23;5.85;94.99
69776;DHT22;57049;51.450;-2.516;2023-01-08T06:25:55;5.81;95.34
69776;DHT22;57049;51.450;-2.516;2023-01-08T06:28:22;5.85;95.48
69776;DHT22;57049;51.450;-2.516;2023-01-08T06:30:48;5.89;95.47
69776;DHT22;57049;51.450;-2.516;2023-01-08T06:33:13;5.90;95.56
69776;DHT22;57049;51.450;-2.516;2023-01-08T06:35:39;5.90;95.66
69776;DHT22;57049;51.450;-2.516;2023-01-08T06:38:05;5.85;95.69
69776;DHT22;57049;51.450;-2.516;2023-01-08T06:40:30;5.90;95.80
69776;DHT22;57049;51.450;-2.516;2023-01-08T06:43:00;5.85;95.89
69776;DHT22;57049;51.450;-2.516;2023-01-08T06:45:27;5.80;96.11
69776;DHT22;57049;51.450;-2.516;2023-01-08T06:47:52;5.69;96.22
69776;DHT22;57049;51.450;-2.516;2023-01-08T06:50:18;5.66;96.41
69776;DHT22;57049;51.450;-2.516;2023-01-08T06:52:43;5.59;96.71
69776;DHT22;57049;51.450;-2.516;2023-01-08T06:55:15;5.62;96.76
69776;DHT22;57049;51.450;-2.516;2023-01-08T06:57:41;5.69;96.89
69776;DHT22;57049;51.450;-2.516;2023-01-08T07:00:06;5.67;96.90
69776;DHT22;57049;51.450;-2.516;2023-01-08T07:02:32;5.66;97.10
69776;DHT22;57049;51.450;-2.516;2023-01-08T07:04:57;5.63;97.14
69776;DHT22;57049;51.450;-2.516;2023-01-08T07:07:23;5.65;97.32
69776;DHT22;57049;51.450;-2.516;2023-01-08T07:09:48;5.78;97.47
69776;DHT22;57049;51.450;-2.516;2023-01-08T07:12:14;5.74;97.48
69776;DHT22;57049;51.450;-2.516;2023-01-08T07:14:39;5.67;97.63
69776;DHT22;57049;51.450;-2.516;2023-01-08T07:17:06;5.77;97.59
69776;DHT22;57049;51.450;-2.516;2023-01-08T07:19:32;5.80;97.50
69776;DHT22;57049;51.450;-2.516;2023-01-08T07:21:57;5.91;97.62
69776;DHT22;57049;51.450;-2.516;2023-01-08T07:24:23;5.94;97.60
69776;DHT22;57049;51.450;-2.516;2023-01-08T07:26:48;6.03;97.42
69776;DHT22;57049;51.450;-2.516;2023-01-08T07:29:14;6.13;97.33
69776;DHT22;57049;51.450;-2.516;2023-01-08T07:31:39;6.11;97.20
69776;DHT22;57049;51.450;-2.516;2023-01-08T07:34:05;6.14;97.09
69776;DHT22;57049;51.450;-2.516;2023-01-08T07:36:30;6.18;96.93
69776;DHT22;57049;51.450;-2.516;2023-01-08T07:38:56;6.25;96.73
69776;DHT22;57049;51.450;-2.516;2023-01-08T07:41:21;6.28;96.56
69776;DHT22;57049;51.450;-2.516;2023-01-08T07:43:47;6.34;96.32
69776;DHT22;57049;51.450;-2.516;2023-01-08T07:46:13;6.24;96.45
69776;DHT22;57049;51.450;-2.516;2023-01-08T07:48:39;6.31;96.49
69776;DHT22;57049;51.450;-2.516;2023-01-08T07:51:05;6.28;96.68
69776;DHT22;57049;51.450;-2.516;2023-01-08T07:53:32;6.31;96.70
69776;DHT22;57049;51.450;-2.516;2023-01-08T07:56:16;6.34;96.72
69776;DHT22;57049;51.450;-2.516;2023-01-08T07:58:42;6.35;96.61
69776;DHT22;57049;51.450;-2.516;2023-01-08T08:01:10;6.41;96.60
69776;DHT22;57049;51.450;-2.516;2023-01-08T08:03:37;6.44;96.56
69776;DHT22;57049;51.450;-2.516;2023-01-08T08:06:03;6.39;96.57
69776;DHT22;57049;51.450;-2.516;2023-01-08T08:08:28;6.41;96.53
69776;DHT22;57049;51.450;-2.516;2023-01-08T08:10:54;6.45;96.54
69776;DHT22;57049;51.450;-2.516;2023-01-08T08:13:19;6.52;96.42
69776;DHT22;57049;51.450;-2.516;2023-01-08T08:15:45;6.53;96.37
69776;DHT22;57049;51.450;-2.516;2023-01-08T08:18:10;6.65;96.00
69776;DHT22;57049;51.450;-2.516;2023-01-08T08:20:37;6.62;95.98
69776;DHT22;57049;51.450;-2.516;2023-01-08T08:23:13;6.67;95.98
69776;DHT22;57049;51.450;-2.516;2023-01-08T08:25:40;6.78;95.65
69776;DHT22;57049;51.450;-2.516;2023-01-08T08:28:06;6.85;95.39
69776;DHT22;57049;51.450;-2.516;2023-01-08T08:30:33;6.78;95.62
69776;DHT22;57049;51.450;-2.516;2023-01-08T08:33:00;6.80;95.50
69776;DHT22;57049;51.450;-2.516;2023-01-08T08:35:26;6.83;95.57
69776;DHT22;57049;51.450;-2.516;2023-01-08T08:37:53;6.86;95.53
69776;DHT22;57049;51.450;-2.516;2023-01-08T08:40:18;6.88;95.46
69776;DHT22;57049;51.450;-2.516;2023-01-08T08:42:46;6.93;95.42
69776;DHT22;57049;51.450;-2.516;2023-01-08T08:45:12;6.92;95.48
69776;DHT22;57049;51.450;-2.516;2023-01-08T08:47:37;6.97;95.41
69776;DHT22;57049;51.450;-2.516;2023-01-08T08:50:04;7.04;95.30
69776;DHT22;57049;51.450;-2.516;2023-01-08T08:52:31;7.02;95.42
69776;DHT22;57049;51.450;-2.516;2023-01-08T08:54:57;7.04;95.43
69776;DHT22;57049;51.450;-2.516;2023-01-08T08:57:23;7.03;95.65
69776;DHT22;57049;51.450;-2.516;2023-01-08T08:59:49;7.09;95.62
69776;DHT22;57049;51.450;-2.516;2023-01-08T09:02:14;7.17;95.75
69776;DHT22;57049;51.450;-2.516;2023-01-08T09:04:40;7.23;95.91
69776;DHT22;57049;51.450;-2.516;2023-01-08T09:07:05;7.35;95.91
69776;DHT22;57049;51.450;-2.516;2023-01-08T09:09:31;7.41;95.92
69776;DHT22;57049;51.450;-2.516;2023-01-08T09:11:56;7.41;96.17
69776;DHT22;57049;51.450;-2.516;2023-01-08T09:14:22;7.47;96.40
69776;DHT22;57049;51.450;-2.516;2023-01-08T09:16:48;7.61;96.43
69776;DHT22;57049;51.450;-2.516;2023-01-08T09:19:13;7.73;96.39
69776;DHT22;57049;51.450;-2.516;2023-01-08T09:21:38;7.78;96.26
69776;DHT22;57049;51.450;-2.516;2023-01-08T09:24:05;7.79;96.36
69776;DHT22;57049;51.450;-2.516;2023-01-08T09:26:30;7.77;96.66
69776;DHT22;57049;51.450;-2.516;2023-01-08T09:28:57;7.79;96.77
69776;DHT22;57049;51.450;-2.516;2023-01-08T09:31:23;7.86;96.41
69776;DHT22;57049;51.450;-2.516;2023-01-08T09:33:49;7.92;96.22
69776;DHT22;57049;51.450;-2.516;2023-01-08T09:36:15;7.95;96.01
69776;DHT22;57049;51.450;-2.516;2023-01-08T09:38:41;7.98;95.49
69776;DHT22;57049;51.450;-2.516;2023-01-08T09:41:34;8.02;95.18
69776;DHT22;57049;51.450;-2.516;2023-01-08T09:44:03;8.06;94.04
69776;DHT22;57049;51.450;-2.516;2023-01-08T09:46:29;8.10;93.81
69776;DHT22;57049;51.450;-2.516;2023-01-08T09:48:58;8.10;92.65
69776;DHT22;57049;51.450;-2.516;2023-01-08T09:51:37;8.17;92.32
69776;DHT22;57049;51.450;-2.516;2023-01-08T09:54:04;8.29;91.73
69776;DHT22;57049;51.450;-2.516;2023-01-08T09:56:33;8.36;90.85
69776;DHT22;57049;51.450;-2.516;2023-01-08T09:59:01;8.36;91.04
69776;DHT22;57049;51.450;-2.516;2023-01-08T10:01:29;8.49;90.82
69776;DHT22;57049;51.450;-2.516;2023-01-08T10:06:51;8.87;89.94
69776;DHT22;57049;51.450;-2.516;2023-01-08T10:09:20;9.03;90.05
69776;DHT22;57049;51.450;-2.516;2023-01-08T10:11:48;8.91;89.64
69776;DHT22;57049;51.450;-2.516;2023-01-08T10:14:21;8.81;91.29
69776;DHT22;57049;51.450;-2.516;2023-01-08T10:16:52;8.73;92.21
69776;DHT22;57049;51.450;-2.516;2023-01-08T10:19:18;8.60;93.65
69776;DHT22;57049;51.450;-2.516;2023-01-08T10:21:44;8.54;94.25
69776;DHT22;57049;51.450;-2.516;2023-01-08T10:24:09;8.47;94.10
69776;DHT22;57049;51.450;-2.516;2023-01-08T10:26:36;8.43;94.38
69776;DHT22;57049;51.450;-2.516;2023-01-08T10:29:14;8.37;94.76
69776;DHT22;57049;51.450;-2.516;2023-01-08T10:31:51;8.40;94.53
69776;DHT22;57049;51.450;-2.516;2023-01-08T10:34:30;8.57;93.84
69776;DHT22;57049;51.450;-2.516;2023-01-08T10:36:56;8.61;92.71
69776;DHT22;57049;51.450;-2.516;2023-01-08T10:39:25;8.63;92.82
69776;DHT22;57049;51.450;-2.516;2023-01-08T10:41:54;8.59;92.83
69776;DHT22;57049;51.450;-2.516;2023-01-08T10:44:22;8.54;92.83
69776;DHT22;57049;51.450;-2.516;2023-01-08T10:46:54;8.53;93.25
69776;DHT22;57049;51.450;-2.516;2023-01-08T10:49:26;8.50;92.74
69776;DHT22;57049;51.450;-2.516;2023-01-08T10:51:53;8.50;92.85
69776;DHT22;57049;51.450;-2.516;2023-01-08T10:54:38;8.46;92.65
69776;DHT22;57049;51.450;-2.516;2023-01-08T10:57:39;8.52;92.49
69776;DHT22;57049;51.450;-2.516;2023-01-08T11:00:21;8.45;92.25
69776;DHT22;57049;51.450;-2.516;2023-01-08T11:02:47;8.37;92.50
69776;DHT22;57049;51.450;-2.516;2023-01-08T11:05:14;8.24;93.54
69776;DHT22;57049;51.450;-2.516;2023-01-08T11:07:40;8.13;94.38
69776;DHT22;57049;51.450;-2.516;2023-01-08T11:10:20;7.91;95.01
69776;DHT22;57049;51.450;-2.516;2023-01-08T11:12:46;7.71;95.12
69776;DHT22;57049;51.450;-2.516;2023-01-08T11:17:43;7.60;95.53
69776;DHT22;57049;51.450;-2.516;2023-01-08T11:22:45;7.55;95.87
69776;DHT22;57049;51.450;-2.516;2023-01-08T11:25:20;7.43;95.59
69776;DHT22;57049;51.450;-2.516;2023-01-08T11:27:47;7.28;95.00
69776;DHT22;57049;51.450;-2.516;2023-01-08T11:30:20;7.24;95.37
69776;DHT22;57049;51.450;-2.516;2023-01-08T11:33:08;7.17;95.03
69776;DHT22;57049;51.450;-2.516;2023-01-08T11:35:41;7.20;95.19
69776;DHT22;57049;51.450;-2.516;2023-01-08T11:38:11;7.17;95.28
69776;DHT22;57049;51.450;-2.516;2023-01-08T11:43:52;7.09;94.77
69776;DHT22;57049;51.450;-2.516;2023-01-08T11:52:02;6.97;95.29
69776;DHT22;57049;51.450;-2.516;2023-01-08T12:00:55;7.22;96.08
69776;DHT22;57049;51.450;-2.516;2023-01-08T12:03:42;7.24;96.03
69776;DHT22;57049;51.450;-2.516;2023-01-08T12:06:25;7.33;95.95
69776;DHT22;57049;51.450;-2.516;2023-01-08T12:09:01;7.40;96.17
69776;DHT22;57049;51.450;-2.516;2023-01-08T12:11:46;7.47;95.96
69776;DHT22;57049;51.450;-2.516;2023-01-08T12:14:47;7.51;95.89
69776;DHT22;57049;51.450;-2.516;2023-01-08T12:22:43;7.75;95.48
69776;DHT22;57049;51.450;-2.516;2023-01-08T12:36:04;7.95;95.64
69776;DHT22;57049;51.450;-2.516;2023-01-08T12:38:35;8.01;95.21
69776;DHT22;57049;51.450;-2.516;2023-01-08T12:41:07;8.06;94.57
69776;DHT22;57049;51.450;-2.516;2023-01-08T12:46:11;8.10;94.58
69776;DHT22;57049;51.450;-2.516;2023-01-08T12:48:38;8.07;94.55
69776;DHT22;57049;51.450;-2.516;2023-01-08T12:51:12;8.13;93.75
69776;DHT22;57049;51.450;-2.516;2023-01-08T12:56:45;8.19;93.33
69776;DHT22;57049;51.450;-2.516;2023-01-08T13:02:26;8.24;92.76
69776;DHT22;57049;51.450;-2.516;2023-01-08T13:04:56;8.36;92.58
69776;DHT22;57049;51.450;-2.516;2023-01-08T13:07:27;8.35;92.75
69776;DHT22;57049;51.450;-2.516;2023-01-08T13:09:56;8.29;92.65
69776;DHT22;57049;51.450;-2.516;2023-01-08T13:12:37;8.26;92.06
69776;DHT22;57049;51.450;-2.516;2023-01-08T13:15:05;8.24;92.63
69776;DHT22;57049;51.450;-2.516;2023-01-08T13:17:32;8.16;92.66
69776;DHT22;57049;51.450;-2.516;2023-01-08T13:20:02;8.19;92.20
69776;DHT22;57049;51.450;-2.516;2023-01-08T13:22:33;8.12;91.72
69776;DHT22;57049;51.450;-2.516;2023-01-08T13:27:47;7.95;91.65
69776;DHT22;57049;51.450;-2.516;2023-01-08T13:30:35;7.88;91.50
69776;DHT22;57049;51.450;-2.516;2023-01-08T13:33:27;7.86;91.36
69776;DHT22;57049;51.450;-2.516;2023-01-08T13:38:38;7.79;91.59
69776;DHT22;57049;51.450;-2.516;2023-01-08T13:41:04;7.81;90.95
69776;DHT22;57049;51.450;-2.516;2023-01-08T13:43:36;7.85;91.35
69776;DHT22;57049;51.450;-2.516;2023-01-08T13:48:37;7.88;91.16
69776;DHT22;57049;51.450;-2.516;2023-01-08T13:51:03;7.88;91.50
69776;DHT22;57049;51.450;-2.516;2023-01-08T13:53:29;7.91;91.04
69776;DHT22;57049;51.450;-2.516;2023-01-08T13:56:05;7.92;91.07
69776;DHT22;57049;51.450;-2.516;2023-01-08T13:58:35;7.88;91.05
69776;DHT22;57049;51.450;-2.516;2023-01-08T14:01:02;7.89;90.96
69776;DHT22;57049;51.450;-2.516;2023-01-08T14:03:37;7.88;91.16
69776;DHT22;57049;51.450;-2.516;2023-01-08T14:06:21;7.81;91.50
69776;DHT22;57049;51.450;-2.516;2023-01-08T14:08:58;7.78;90.86
69776;DHT22;57049;51.450;-2.516;2023-01-08T14:11:45;7.65;91.54
69776;DHT22;57049;51.450;-2.516;2023-01-08T14:14:15;7.61;92.24
69776;DHT22;57049;51.450;-2.516;2023-01-08T14:16:42;7.57;91.38
69776;DHT22;57049;51.450;-2.516;2023-01-08T14:19:13;7.50;90.67
69776;DHT22;57049;51.450;-2.516;2023-01-08T14:21:39;7.47;90.03
69776;DHT22;57049;51.450;-2.516;2023-01-08T14:24:05;7.38;90.11
69776;DHT22;57049;51.450;-2.516;2023-01-08T14:26:33;7.31;90.57
69776;DHT22;57049;51.450;-2.516;2023-01-08T14:29:13;7.35;90.52
69776;DHT22;57049;51.450;-2.516;2023-01-08T14:31:45;7.33;90.67
69776;DHT22;57049;51.450;-2.516;2023-01-08T14:34:12;7.30;90.80
69776;DHT22;57049;51.450;-2.516;2023-01-08T14:36:39;7.30;91.16
69776;DHT22;57049;51.450;-2.516;2023-01-08T14:39:19;7.28;91.40
69776;DHT22;57049;51.450;-2.516;2023-01-08T14:41:46;7.19;91.39
69776;DHT22;57049;51.450;-2.516;2023-01-08T14:44:31;7.19;91.84
69776;DHT22;57049;51.450;-2.516;2023-01-08T14:46:56;7.12;92.34
69776;DHT22;57049;51.450;-2.516;2023-01-08T14:49:25;7.07;93.36
69776;DHT22;57049;51.450;-2.516;2023-01-08T14:51:51;7.14;93.60
69776;DHT22;57049;51.450;-2.516;2023-01-08T14:54:21;7.12;93.42
69776;DHT22;57049;51.450;-2.516;2023-01-08T14:56:52;7.14;93.37
69776;DHT22;57049;51.450;-2.516;2023-01-08T14:59:25;7.02;93.18
69776;DHT22;57049;51.450;-2.516;2023-01-08T15:01:54;6.67;92.91
69776;DHT22;57049;51.450;-2.516;2023-01-08T15:04:22;6.42;93.70
69776;DHT22;57049;51.450;-2.516;2023-01-08T15:06:50;6.11;93.37
69776;DHT22;57049;51.450;-2.516;2023-01-08T15:09:26;6.04;93.97
69776;DHT22;57049;51.450;-2.516;2023-01-08T15:11:54;6.00;89.69
69776;DHT22;57049;51.450;-2.516;2023-01-08T15:14:25;6.03;90.22
69776;DHT22;57049;51.450;-2.516;2023-01-08T15:16:53;6.08;91.34
69776;DHT22;57049;51.450;-2.516;2023-01-08T15:19:24;6.14;91.77
69776;DHT22;57049;51.450;-2.516;2023-01-08T15:21:53;6.22;92.32
69776;DHT22;57049;51.450;-2.516;2023-01-08T15:24:21;6.25;92.81
69776;DHT22;57049;51.450;-2.516;2023-01-08T15:26:47;6.28;93.01
69776;DHT22;57049;51.450;-2.516;2023-01-08T15:29:18;6.24;93.22
69776;DHT22;57049;51.450;-2.516;2023-01-08T15:31:45;6.27;92.78
69776;DHT22;57049;51.450;-2.516;2023-01-08T15:34:11;6.14;93.24
69776;DHT22;57049;51.450;-2.516;2023-01-08T15:36:37;6.03;93.45
69776;DHT22;57049;51.450;-2.516;2023-01-08T15:39:03;5.97;94.13
69776;DHT22;57049;51.450;-2.516;2023-01-08T15:41:33;5.96;93.86
69776;DHT22;57049;51.450;-2.516;2023-01-08T15:44:17;5.90;94.34
69776;DHT22;57049;51.450;-2.516;2023-01-08T15:46:43;6.00;94.37
69776;DHT22;57049;51.450;-2.516;2023-01-08T15:49:08;6.03;94.45
69776;DHT22;57049;51.450;-2.516;2023-01-08T15:51:36;5.97;94.23
69776;DHT22;57049;51.450;-2.516;2023-01-08T15:54:08;5.93;94.25
69776;DHT22;57049;51.450;-2.516;2023-01-08T15:56:34;5.77;94.40
69776;DHT22;57049;51.450;-2.516;2023-01-08T15:58:59;5.65;94.54
69776;DHT22;57049;51.450;-2.516;2023-01-08T16:01:26;5.52;94.96
69776;DHT22;57049;51.450;-2.516;2023-01-08T16:03:52;5.38;95.29
69776;DHT22;57049;51.450;-2.516;2023-01-08T16:06:17;5.25;95.29
69776;DHT22;57049;51.450;-2.516;2023-01-08T16:08:43;5.25;95.97
69776;DHT22;57049;51.450;-2.516;2023-01-08T16:11:11;5.25;96.48
69776;DHT22;57049;51.450;-2.516;2023-01-08T16:13:38;5.26;96.61
69776;DHT22;57049;51.450;-2.516;2023-01-08T16:16:12;5.24;96.85
69776;DHT22;57049;51.450;-2.516;2023-01-08T16:18:38;5.21;97.03
69776;DHT22;57049;51.450;-2.516;2023-01-08T16:21:07;5.21;96.95
69776;DHT22;57049;51.450;-2.516;2023-01-08T16:23:37;5.19;96.91
69776;DHT22;57049;51.450;-2.516;2023-01-08T16:26:08;5.25;97.06
69776;DHT22;57049;51.450;-2.516;2023-01-08T16:28:34;5.31;97.08
69776;DHT22;57049;51.450;-2.516;2023-01-08T16:31:00;5.35;97.03
69776;DHT22;57049;51.450;-2.516;2023-01-08T16:33:25;5.34;97.08
69776;DHT22;57049;51.450;-2.516;2023-01-08T16:35:58;5.29;96.97
69776;DHT22;57049;51.450;-2.516;2023-01-08T16:38:24;5.25;97.07
69776;DHT22;57049;51.450;-2.516;2023-01-08T16:40:51;5.22;97.04
69776;DHT22;57049;51.450;-2.516;2023-01-08T16:43:17;5.14;97.24
69776;DHT22;57049;51.450;-2.516;2023-01-08T16:45:46;5.07;97.36
69776;DHT22;57049;51.450;-2.516;2023-01-08T16:48:12;5.11;97.40
69776;DHT22;57049;51.450;-2.516;2023-01-08T16:50:39;5.04;97.59
69776;DHT22;57049;51.450;-2.516;2023-01-08T16:53:05;5.04;97.70
69776;DHT22;57049;51.450;-2.516;2023-01-08T16:55:31;4.96;97.83
69776;DHT22;57049;51.450;-2.516;2023-01-08T16:57:56;4.95;97.93
69776;DHT22;57049;51.450;-2.516;2023-01-08T17:00:22;4.95;97.93
69776;DHT22;57049;51.450;-2.516;2023-01-08T17:02:47;5.01;97.82